Segenap pimpinan dan karyawan_20240408_235739_0000

Kelompok 4 KKN STIUDA Bangkalan Gelar Pembukaan Seremonial

Media Jatim

MEDIAJATIM.COM | Bangkalan – Sebelas mahasiswa yang tergabung dalam kelompok 4 KKN STIUDA Distrik Kajjan, Blega, Bangkalan menggelar Opening Seremonial, Jum’at (22/01/2020).

8_20240408_234212_0006
21_20240408_234212_0019
5_20240408_234212_0003
2_20240408_234211_0000
3_20240408_234211_0001
10_20240408_234212_0008
Diskon_20240411_102039_0000

Acara yang dilaksanakan di gedung aula YPI Nurul Karomah tersebut dihadiri oleh Kepala Desa beserta segenap tokoh masyarakat setempat.

6_20240408_234212_0004
14_20240408_234212_0012
7_20240408_234212_0005
Diskon_20240408_235150_0000
24_20240408_234212_0022
13_20240408_234212_0011

Syamsul Hadi sebagai Koordinator Desa (Kordes) menyampaikan beberapa hal yang berkaitan dengan keberlangsungan kegiatan KKN dalam jangka 20 hari ke depan.

“Kami mohon arahan kepada segenap tokoh masyarakat, karena kedatangan kami disini tidak akan terlepas dari dua kemungkinan, yaitu memberi manfaat bagi masyarakat atau mungkin menjadi beban masyarakat.” kata Syamsul.

Sementara itu, Abdurrahman Dosen Pembimbing KKN STIUDA Bangkalan menyampaikan kepada para peserta KKN untuk saling bersinergi dengan masyarakat sekitar.

9_20240408_234212_0007
20_20240408_234212_0018
15_20240408_234212_0013
17_20240409_074953_0000
16_20240408_234212_0014
Diskon_20240409_180711_0000

“Mahasiswa harus mampu memberikan tranformasi bagi masyarakat. Mudah-mudahan mahasiswa yang diutus disini bisa mempunyai rencana-rencana yang baik yang bisa memberikan manfaat bagi masyarakat, dan tentunya harus dibimbing dan didampingi oleh para tokoh masyarakat” tuturnya saat sambutan.

Baca Juga:  BEM STIUDA Bangkalan Hadirkan Nuansa Baru Perayaan Hari Santri

Pada kesempatan yang sama, Kepala Desa Kajjan yang diwakili oleh Bapak Sowi menyambut baik segenap peserta KKN STIUDA.

“Inilah kearifan lokal masyarakat kami yang mungkin tidak sama dengan budaya dan karakter adek-adek sekalian. Semoga perbedaan ini tidak menjadi penghalang bagi adek-adek mahasiswa untuk memberikan dorongan dan inovasi demi terbinanya masyarakat Kajjan yang lebih baik,” pungkas lelaki yang menjabat sebagai aparatur desa tersebut.

Reporter: Kholisin

Redaktur: Zul

Kantor Kementerian Agama Kabupaten Sampang_20240410_124753_0000
4_20240408_232459_0003
6_20240408_232459_0005
1_20240408_232458_0000
Dinas lingkungan hidup kabupaten sumenep_20240408_232720_0000
7_20240408_232459_0006
3_20240408_232459_0002
8_20240408_232459_0007
2_20240408_232459_0001